createdAt,value
2018-08-20T00:01:55.148Z,1.20
2018-08-20T00:04:30.051Z,1.30
2018-08-20T00:07:03.955Z,0.90
2018-08-20T00:09:46.006Z,1.40
2018-08-20T00:12:19.964Z,1.00
2018-08-20T00:14:54.875Z,1.10
2018-08-20T00:17:28.835Z,1.00
2018-08-20T00:20:02.726Z,1.43
2018-08-20T00:22:37.161Z,1.20
2018-08-20T00:25:12.689Z,1.30
2018-08-20T00:27:47.600Z,1.17
2018-08-20T00:30:21.947Z,1.30
2018-08-20T00:32:56.022Z,1.37
2018-08-20T00:35:31.653Z,1.20
2018-08-20T00:38:06.606Z,1.57
2018-08-20T00:40:41.801Z,1.13
2018-08-20T00:43:16.649Z,1.63
2018-08-20T00:45:51.109Z,1.10
2018-08-20T00:48:25.934Z,1.90
2018-08-20T00:51:00.237Z,1.30
2018-08-20T00:53:34.558Z,1.40
2018-08-20T00:56:08.749Z,0.97
2018-08-20T00:58:42.999Z,1.53
2018-08-20T01:01:18.487Z,1.37
2018-08-20T01:03:54.456Z,1.30
2018-08-20T01:06:28.396Z,1.57
2018-08-20T01:09:02.436Z,1.73
2018-08-20T01:11:36.365Z,1.77
2018-08-20T01:14:12.449Z,1.77
2018-08-20T01:16:46.505Z,1.27
2018-08-20T01:19:20.725Z,1.40
2018-08-20T01:21:55.776Z,1.47
2018-08-20T01:24:30.185Z,1.70
2018-08-20T01:27:04.309Z,1.83
2018-08-20T01:29:38.419Z,1.30
2018-08-20T01:32:12.248Z,1.80
2018-08-20T01:34:46.476Z,1.23
2018-08-20T01:37:21.384Z,1.70
2018-08-20T01:39:55.527Z,1.77
2018-08-20T01:42:29.578Z,1.60
2018-08-20T01:45:03.942Z,1.50
2018-08-20T01:47:41.230Z,1.53
2018-08-20T01:50:15.487Z,1.60
2018-08-20T01:52:50.005Z,1.37
2018-08-20T01:55:24.241Z,1.73
2018-08-20T01:58:04.389Z,1.70
2018-08-20T02:00:40.230Z,1.83
2018-08-20T02:03:14.200Z,1.73
2018-08-20T02:05:48.733Z,1.70
2018-08-20T02:08:24.016Z,2.10
2018-08-20T02:10:58.219Z,1.73
2018-08-20T02:13:36.570Z,1.77
2018-08-20T02:16:11.887Z,1.90
2018-08-20T02:18:47.563Z,2.10
2018-08-20T02:21:22.862Z,1.87
2018-08-20T02:23:56.993Z,2.00
2018-08-20T02:26:31.134Z,1.57
2018-08-20T02:29:05.222Z,1.50
2018-08-20T02:31:48.390Z,1.73
2018-08-20T02:34:22.946Z,1.90
2018-08-20T02:36:57.729Z,1.93
2018-08-20T02:39:32.415Z,1.50
2018-08-20T02:42:07.172Z,1.83
2018-08-20T02:44:42.123Z,1.90
2018-08-20T02:47:17.309Z,1.90
2018-08-20T02:49:51.758Z,1.53
2018-08-20T02:52:27.823Z,1.70
2018-08-20T02:55:03.236Z,1.57
2018-08-20T02:57:42.509Z,1.77
2018-08-20T03:00:17.152Z,1.93
2018-08-20T03:02:52.325Z,1.60
2018-08-20T03:05:26.661Z,1.70
2018-08-20T03:08:01.478Z,1.93
2018-08-20T03:10:36.074Z,1.40
2018-08-20T03:13:10.429Z,1.40
2018-08-20T03:15:45.015Z,1.70
2018-08-20T03:18:19.224Z,1.80
2018-08-20T03:20:54.281Z,1.43
2018-08-20T03:23:31.774Z,1.90
2018-08-20T03:26:06.658Z,2.23
2018-08-20T03:28:40.888Z,1.70
2018-08-20T03:31:15.156Z,1.83
2018-08-20T03:33:49.913Z,1.60
2018-08-20T03:36:25.765Z,1.70
2018-08-20T03:38:59.712Z,1.53
2018-08-20T03:41:33.828Z,1.60
2018-08-20T03:44:08.391Z,1.73
2018-08-20T03:46:43.638Z,1.97
2018-08-20T03:49:17.634Z,1.93
2018-08-20T03:51:52.233Z,1.93
2018-08-20T03:54:26.154Z,2.10
2018-08-20T03:57:01.418Z,1.77
2018-08-20T03:59:36.775Z,1.90
2018-08-20T04:02:11.680Z,1.70
2018-08-20T04:04:47.151Z,1.40
2018-08-20T04:07:21.751Z,1.70
2018-08-20T04:09:56.004Z,1.50
2018-08-20T04:12:30.083Z,1.60
2018-08-20T04:17:42.324Z,1.73
2018-08-20T04:20:16.624Z,1.80
2018-08-20T04:22:50.790Z,1.90
2018-08-20T04:25:26.299Z,1.90
2018-08-20T04:28:00.354Z,2.00
2018-08-20T04:30:36.529Z,1.60
2018-08-20T04:33:10.448Z,1.10
2018-08-20T04:35:44.318Z,1.10
2018-08-20T04:38:18.230Z,1.13
2018-08-20T04:40:52.147Z,2.20
2018-08-20T04:43:26.003Z,1.80
2018-08-20T04:45:59.850Z,1.73
2018-08-20T04:48:33.704Z,1.70
2018-08-20T04:51:07.921Z,3.77
2018-08-20T04:53:41.950Z,1.97
2018-08-20T04:56:15.777Z,1.77
2018-08-20T04:58:49.576Z,1.67
2018-08-20T05:01:23.461Z,1.53
2018-08-20T05:03:57.643Z,1.60
2018-08-20T05:06:31.401Z,1.50
2018-08-20T05:09:06.219Z,1.47
2018-08-20T05:11:40.221Z,1.77
2018-08-20T05:14:14.235Z,1.83
2018-08-20T05:16:48.350Z,2.30
2018-08-20T05:19:22.374Z,2.13
2018-08-20T05:21:56.127Z,1.90
2018-08-20T05:24:29.944Z,2.10
2018-08-20T05:27:03.848Z,2.27
2018-08-20T05:29:37.821Z,2.07
2018-08-20T05:32:11.783Z,2.03
2018-08-20T05:34:46.109Z,2.13
2018-08-20T05:37:20.301Z,1.90
2018-08-20T05:39:54.991Z,2.20
2018-08-20T05:42:29.254Z,2.00
2018-08-20T05:45:03.412Z,1.90
2018-08-20T05:47:37.509Z,2.10
2018-08-20T05:50:11.661Z,2.10
2018-08-20T05:52:45.696Z,1.90
2018-08-20T05:55:19.613Z,1.70
2018-08-20T05:57:53.596Z,2.00
2018-08-20T06:00:27.705Z,1.70
2018-08-20T06:03:01.637Z,2.20
2018-08-20T06:05:35.793Z,2.03
2018-08-20T06:08:09.792Z,1.90
2018-08-20T06:10:43.566Z,1.90
2018-08-20T06:13:17.614Z,2.30
2018-08-20T06:15:51.504Z,2.70
2018-08-20T06:18:25.413Z,2.23
2018-08-20T06:20:59.209Z,2.20
2018-08-20T06:23:33.594Z,1.73
2018-08-20T06:26:07.549Z,2.13
2018-08-20T06:28:41.551Z,2.10
2018-08-20T06:31:15.414Z,1.97
2018-08-20T06:33:49.361Z,1.90
2018-08-20T06:36:23.262Z,2.13
2018-08-20T06:38:57.161Z,2.17
2018-08-20T06:41:33.849Z,2.53
2018-08-20T06:44:07.946Z,2.23
2018-08-20T06:46:41.817Z,2.43
2018-08-20T06:49:15.810Z,2.20
2018-08-20T06:51:50.022Z,1.90
2018-08-20T06:54:24.155Z,1.83
2018-08-20T06:59:38.389Z,2.00
2018-08-20T07:02:12.202Z,1.90
2018-08-20T07:04:46.062Z,2.23
2018-08-20T07:07:20.826Z,1.80
2018-08-20T07:09:54.815Z,1.73
2018-08-20T07:12:28.676Z,1.87
2018-08-20T07:15:02.536Z,1.60
2018-08-20T07:17:36.588Z,1.70
2018-08-20T07:20:11.581Z,1.93
2018-08-20T07:22:45.462Z,1.73
2018-08-20T07:25:19.127Z,2.57
2018-08-20T07:27:53.109Z,1.97
2018-08-20T07:30:26.898Z,1.80
2018-08-20T07:33:00.614Z,1.53
2018-08-20T07:35:34.639Z,2.10
2018-08-20T07:38:09.044Z,1.87
2018-08-20T07:40:43.130Z,1.87
2018-08-20T07:43:16.974Z,1.50
2018-08-20T07:45:50.866Z,1.70
2018-08-20T07:48:24.740Z,1.60
2018-08-20T07:53:24.916Z,1.60
2018-08-20T07:55:59.114Z,1.90
2018-08-20T07:58:33.710Z,1.83
2018-08-20T08:01:09.248Z,2.03
2018-08-20T08:03:43.402Z,1.50
2018-08-20T08:06:17.627Z,2.40
2018-08-20T08:08:53.396Z,1.57
2018-08-20T08:11:27.580Z,1.80
2018-08-20T08:14:01.696Z,1.57
2018-08-20T08:16:37.314Z,2.07
2018-08-20T08:19:11.212Z,2.13
2018-08-20T08:21:45.088Z,1.90
2018-08-20T08:24:18.892Z,1.87
2018-08-20T08:26:52.737Z,2.13
2018-08-20T08:29:26.695Z,1.77
2018-08-20T08:32:00.462Z,1.50
2018-08-20T08:34:34.334Z,1.97
2018-08-20T08:37:08.465Z,1.23
2018-08-20T08:39:42.303Z,1.43
2018-08-20T08:42:16.235Z,1.90
2018-08-20T08:44:50.167Z,1.87
2018-08-20T08:47:24.091Z,1.80
2018-08-20T08:49:58.083Z,1.80
2018-08-20T08:52:32.393Z,1.83
2018-08-20T08:55:06.686Z,1.50
2018-08-20T08:57:40.472Z,1.67
2018-08-20T09:00:15.578Z,1.70
2018-08-20T09:02:49.630Z,1.73
2018-08-20T09:05:23.510Z,1.90
2018-08-20T09:07:57.483Z,1.57
2018-08-20T09:10:31.287Z,1.63
2018-08-20T09:13:05.239Z,1.70
2018-08-20T09:15:39.079Z,2.00
2018-08-20T09:18:13.184Z,2.00
2018-08-20T09:20:47.084Z,1.90
2018-08-20T09:23:21.098Z,1.70
2018-08-20T09:25:54.892Z,1.77
2018-08-20T09:28:28.738Z,1.60
2018-08-20T09:31:02.543Z,1.70
2018-08-20T09:33:36.516Z,1.70
2018-08-20T09:36:10.561Z,1.57
2018-08-20T09:38:44.462Z,1.53
2018-08-20T09:41:18.281Z,1.90
2018-08-20T09:43:52.321Z,1.60
2018-08-20T09:46:26.362Z,1.63
2018-08-20T09:49:00.373Z,1.40
2018-08-20T09:51:34.227Z,1.20
2018-08-20T09:54:08.489Z,1.83
2018-08-20T09:56:42.437Z,1.77
2018-08-20T09:59:16.549Z,1.97
2018-08-20T10:01:50.496Z,1.17
2018-08-20T10:04:24.477Z,1.60
2018-08-20T10:06:58.506Z,1.27
2018-08-20T10:09:32.426Z,1.37
2018-08-20T10:12:06.616Z,1.77
2018-08-20T10:14:40.405Z,1.10
2018-08-20T10:17:14.452Z,1.40
2018-08-20T10:19:48.298Z,1.50
2018-08-20T10:22:22.364Z,1.63
2018-08-20T10:24:56.504Z,1.73
2018-08-20T10:27:30.415Z,1.43
2018-08-20T10:30:04.810Z,1.47
2018-08-20T10:32:38.981Z,1.50
2018-08-20T10:35:12.693Z,1.67
2018-08-20T10:37:46.787Z,1.47
2018-08-20T10:40:20.557Z,1.70
2018-08-20T10:42:54.515Z,1.73
2018-08-20T10:45:33.836Z,1.60
2018-08-20T10:48:07.812Z,1.10
2018-08-20T10:50:41.806Z,1.53
2018-08-20T10:53:15.734Z,1.40
2018-08-20T10:55:49.645Z,1.23
2018-08-20T10:58:23.524Z,1.47
2018-08-20T11:00:57.262Z,1.30
2018-08-20T11:03:31.171Z,1.67
2018-08-20T11:06:04.976Z,1.40
2018-08-20T11:08:38.766Z,1.17
2018-08-20T11:11:12.842Z,0.93
2018-08-20T11:13:47.123Z,1.07
2018-08-20T11:16:21.083Z,0.83
2018-08-20T11:18:54.984Z,0.90
2018-08-20T11:21:28.946Z,0.77
2018-08-20T11:24:02.939Z,0.90
2018-08-20T11:26:36.800Z,0.97
2018-08-20T11:29:10.662Z,0.80
2018-08-20T11:31:44.551Z,0.90
2018-08-20T11:34:18.410Z,0.90
2018-08-20T11:36:52.405Z,0.83
2018-08-20T11:39:26.210Z,0.80
2018-08-20T11:42:00.168Z,0.63
2018-08-20T11:44:34.035Z,0.87
2018-08-20T11:47:07.947Z,0.97
2018-08-20T11:49:41.980Z,1.00
2018-08-20T11:52:15.802Z,1.30
2018-08-20T11:54:50.449Z,1.10
2018-08-20T11:57:24.466Z,0.90
2018-08-20T11:59:58.440Z,1.10
2018-08-20T12:02:32.668Z,1.03
2018-08-20T12:05:07.110Z,1.07
2018-08-20T12:07:41.126Z,1.00
2018-08-20T12:10:14.882Z,1.10
2018-08-20T12:12:48.822Z,1.10
2018-08-20T12:15:22.997Z,1.43
2018-08-20T12:17:56.969Z,1.10
2018-08-20T12:20:30.769Z,0.97
2018-08-20T12:23:04.744Z,0.97
2018-08-20T12:25:38.671Z,1.03
2018-08-20T12:28:12.503Z,1.10
2018-08-20T12:30:46.351Z,1.43
2018-08-20T12:33:20.243Z,1.50
2018-08-20T12:35:54.127Z,1.60
2018-08-20T12:38:28.162Z,1.60
2018-08-20T12:41:02.014Z,1.53
2018-08-20T12:43:36.071Z,1.60
2018-08-20T12:46:09.873Z,1.90
2018-08-20T12:48:43.906Z,2.03
2018-08-20T12:51:17.911Z,1.90
2018-08-20T12:53:51.778Z,1.90
2018-08-20T12:56:25.733Z,1.73
2018-08-20T12:58:59.599Z,1.50
2018-08-20T13:01:33.596Z,1.60
2018-08-20T13:04:07.649Z,1.87
2018-08-20T13:06:41.790Z,1.90
2018-08-20T13:09:15.817Z,1.50
2018-08-20T13:11:49.685Z,2.03
2018-08-20T13:14:23.906Z,1.97
2018-08-20T13:16:57.929Z,1.97
2018-08-20T13:19:32.192Z,2.03
2018-08-20T13:22:06.276Z,1.97
2018-08-20T13:24:40.203Z,1.87
2018-08-20T13:27:14.166Z,2.10
2018-08-20T13:29:48.203Z,2.03
2018-08-20T13:32:22.211Z,1.80
2018-08-20T13:34:56.305Z,1.67
2018-08-20T13:37:30.671Z,2.17
2018-08-20T13:40:05.184Z,1.70
2018-08-20T13:42:38.979Z,1.90
2018-08-20T13:45:12.910Z,1.97
2018-08-20T13:47:46.936Z,1.57
2018-08-20T13:50:21.110Z,1.77
2018-08-20T13:52:54.983Z,2.03
2018-08-20T13:55:28.962Z,2.10
2018-08-20T13:58:02.763Z,2.00
2018-08-20T14:00:36.626Z,1.77
2018-08-20T14:03:10.699Z,2.00
2018-08-20T14:05:44.517Z,2.30
2018-08-20T14:08:18.401Z,1.67
2018-08-20T14:10:52.384Z,1.93
2018-08-20T14:13:26.056Z,1.90
2018-08-20T14:16:00.080Z,2.47
2018-08-20T14:18:34.088Z,1.90
2018-08-20T14:21:11.404Z,2.63
2018-08-20T14:23:52.938Z,2.17
2018-08-20T14:26:27.293Z,1.80
2018-08-20T14:29:01.448Z,2.03
2018-08-20T14:31:35.252Z,1.90
2018-08-20T14:34:09.269Z,2.03
2018-08-20T14:36:43.150Z,2.00
2018-08-20T14:39:17.271Z,1.83
2018-08-20T14:41:51.506Z,1.80
2018-08-20T14:44:25.290Z,1.40
2018-08-20T14:46:59.210Z,1.10
2018-08-20T14:49:33.116Z,1.40
2018-08-20T14:52:07.521Z,1.57
2018-08-20T14:54:41.182Z,1.80
2018-08-20T14:57:15.206Z,0.43
2018-08-20T14:59:48.967Z,1.40
2018-08-20T15:02:22.908Z,1.40
2018-08-20T15:04:58.565Z,1.80
2018-08-20T15:07:33.451Z,1.70
2018-08-20T15:10:09.471Z,1.37
2018-08-20T15:12:44.138Z,1.33
2018-08-20T15:15:19.209Z,1.63
2018-08-20T15:17:54.014Z,1.33
2018-08-20T15:20:29.005Z,1.87
2018-08-20T15:23:04.267Z,2.00
2018-08-20T15:25:39.288Z,1.63
2018-08-20T15:28:14.548Z,1.40
2018-08-20T15:30:48.549Z,1.50
2018-08-20T15:33:22.868Z,1.73
2018-08-20T15:35:57.416Z,1.30
2018-08-20T15:38:32.387Z,1.80
2018-08-20T15:41:07.234Z,1.50
2018-08-20T15:43:42.483Z,1.80
2018-08-20T15:46:16.535Z,1.43
2018-08-20T15:48:51.638Z,1.50
2018-08-20T15:51:26.541Z,1.70
2018-08-20T15:54:00.590Z,1.43
2018-08-20T15:56:34.568Z,1.83
2018-08-20T15:59:09.283Z,1.57
2018-08-20T16:01:44.786Z,1.57
2018-08-20T16:04:18.765Z,1.80
2018-08-20T16:06:52.835Z,2.20
2018-08-20T16:09:26.837Z,1.60
2018-08-20T16:12:02.258Z,1.93
2018-08-20T16:14:36.276Z,1.53
2018-08-20T16:17:10.221Z,1.90
2018-08-20T16:19:45.425Z,1.93
2018-08-20T16:22:20.478Z,1.77
2018-08-20T16:24:54.367Z,1.60
2018-08-20T16:27:29.118Z,1.53
2018-08-20T16:30:03.175Z,1.87
2018-08-20T16:32:39.202Z,1.70
2018-08-20T16:35:13.547Z,1.40
2018-08-20T16:37:48.363Z,1.90
2018-08-20T16:40:23.819Z,1.93
2018-08-20T16:42:57.810Z,1.87
2018-08-20T16:45:32.817Z,2.03
2018-08-20T16:48:06.865Z,1.90
2018-08-20T16:50:41.156Z,1.57
2018-08-20T16:53:17.030Z,1.40
2018-08-20T16:55:51.845Z,1.37
2018-08-20T16:58:26.041Z,1.27
2018-08-20T17:01:00.881Z,1.20
2018-08-20T17:03:35.382Z,1.40
2018-08-20T17:06:10.025Z,1.30
2018-08-20T17:08:44.831Z,0.90
2018-08-20T17:11:19.035Z,1.03
2018-08-20T17:13:56.021Z,1.30
2018-08-20T17:16:29.975Z,1.00
2018-08-20T17:21:13.597Z,1.20
2018-08-20T17:26:31.101Z,1.10
2018-08-20T17:29:13.174Z,0.70
2018-08-20T17:31:54.184Z,1.00
2018-08-20T17:34:29.097Z,0.90
2018-08-20T17:37:03.640Z,0.80
2018-08-20T17:39:43.289Z,0.80
2018-08-20T17:42:18.403Z,0.83
2018-08-20T17:44:52.837Z,0.70
2018-08-20T17:47:27.609Z,0.70
2018-08-20T17:50:03.051Z,0.87
2018-08-20T17:52:40.589Z,0.67
2018-08-20T17:55:14.724Z,0.90
2018-08-20T17:57:49.054Z,0.80
2018-08-20T18:00:35.562Z,1.27
2018-08-20T18:03:18.230Z,0.80
2018-08-20T18:05:57.806Z,1.07
2018-08-20T18:11:09.575Z,0.90
2018-08-20T18:13:48.382Z,1.10
2018-08-20T18:16:23.055Z,1.30
2018-08-20T18:18:58.124Z,0.93
2018-08-20T18:21:34.545Z,1.10
2018-08-20T18:24:12.627Z,1.10
2018-08-20T18:26:51.339Z,1.10
2018-08-20T18:29:26.611Z,1.23
2018-08-20T18:32:04.208Z,2.40
2018-08-20T18:34:38.323Z,1.57
2018-08-20T18:37:13.671Z,1.03
2018-08-20T18:39:52.353Z,1.10
2018-08-20T18:42:33.353Z,1.40
2018-08-20T18:45:08.229Z,1.10
2018-08-20T18:47:42.758Z,1.00
2018-08-20T18:50:17.280Z,1.23
2018-08-20T18:52:52.410Z,1.10
2018-08-20T18:55:26.346Z,1.10
2018-08-20T18:58:02.391Z,0.90
2018-08-20T19:00:36.595Z,1.10
2018-08-20T19:03:11.166Z,1.10
2018-08-20T19:05:52.401Z,1.27
2018-08-20T19:08:28.668Z,0.97
2018-08-20T19:11:02.908Z,1.30
2018-08-20T19:13:37.662Z,1.10
2018-08-20T19:16:24.731Z,1.30
2018-08-20T19:19:00.080Z,1.00
2018-08-20T19:21:37.699Z,1.10
2018-08-20T19:24:11.981Z,1.00
2018-08-20T19:26:46.377Z,1.20
2018-08-20T19:29:26.500Z,1.00
2018-08-20T19:32:00.977Z,1.23
2018-08-20T19:34:35.813Z,1.10
2018-08-20T19:37:10.109Z,1.23
2018-08-20T19:39:45.443Z,0.90
2018-08-20T19:42:24.943Z,1.20
2018-08-20T19:44:58.965Z,1.00
2018-08-20T19:47:33.345Z,1.10
2018-08-20T19:50:08.414Z,1.07
2018-08-20T19:52:46.929Z,1.23
2018-08-20T19:55:21.852Z,1.00
2018-08-20T19:57:56.097Z,1.00
2018-08-20T20:00:30.477Z,0.97
2018-08-20T20:03:04.767Z,1.17
2018-08-20T20:05:46.600Z,0.93
2018-08-20T20:08:21.256Z,1.10
2018-08-20T20:10:58.615Z,1.03
2018-08-20T20:13:38.841Z,1.00
2018-08-20T20:16:13.136Z,0.60
2018-08-20T20:18:47.736Z,0.97
2018-08-20T20:21:22.067Z,0.80
2018-08-20T20:23:56.031Z,0.80
2018-08-20T20:26:29.999Z,0.80
2018-08-20T20:29:04.713Z,0.70
2018-08-20T20:31:39.719Z,0.50
2018-08-20T20:34:15.240Z,0.57
2018-08-20T20:36:49.479Z,0.80
2018-08-20T20:39:24.603Z,0.67
2018-08-20T20:41:58.708Z,0.80
2018-08-20T20:44:32.642Z,1.03
2018-08-20T20:47:07.235Z,0.77
2018-08-20T20:49:41.175Z,0.83
2018-08-20T20:52:15.505Z,0.97
2018-08-20T20:54:49.239Z,0.90
2018-08-20T20:57:23.696Z,0.80
2018-08-20T20:59:59.578Z,1.20
2018-08-20T21:02:34.262Z,1.00
2018-08-20T21:05:10.999Z,0.90
2018-08-20T21:07:45.212Z,0.90
2018-08-20T21:10:19.405Z,0.90
2018-08-20T21:12:53.734Z,0.80
2018-08-20T21:15:28.579Z,0.70
2018-08-20T21:18:02.619Z,0.67
2018-08-20T21:20:36.621Z,1.13
2018-08-20T21:23:10.661Z,0.60
2018-08-20T21:25:44.820Z,0.80
2018-08-20T21:28:19.954Z,0.70
2018-08-20T21:30:54.526Z,0.60
2018-08-20T21:33:28.553Z,0.50
2018-08-20T21:36:02.329Z,0.60
2018-08-20T21:38:36.544Z,0.90
2018-08-20T21:41:10.630Z,0.50
2018-08-20T21:43:46.427Z,0.50
2018-08-20T21:46:20.482Z,0.53
2018-08-20T21:48:55.388Z,0.80
2018-08-20T21:52:00.467Z,0.70
2018-08-20T21:54:38.964Z,0.90
2018-08-20T21:57:13.684Z,0.63
2018-08-20T21:59:53.806Z,0.60
2018-08-20T22:02:29.495Z,0.50
2018-08-20T22:05:03.566Z,0.50
2018-08-20T22:07:38.277Z,0.60
2018-08-20T22:10:12.896Z,0.60
2018-08-20T22:12:47.059Z,0.60
2018-08-20T22:15:21.008Z,0.50
2018-08-20T22:17:55.193Z,0.40
2018-08-20T22:20:30.195Z,0.40
2018-08-20T22:23:11.993Z,0.50
2018-08-20T22:45:41.261Z,0.67
2018-08-20T22:48:17.274Z,0.40
2018-08-20T23:42:30.623Z,0.50
2018-08-20T23:45:04.871Z,0.50
2018-08-20T23:47:38.984Z,0.50
2018-08-20T23:50:13.933Z,0.43
2018-08-20T23:52:47.990Z,0.60
2018-08-20T23:55:23.144Z,0.50
2018-08-20T23:58:01.460Z,0.30
